KAKH/AKH METAR and TAF weather

Enter ICAO airport designator
Station Type Date Time Source
KAKH METAR 2021/07/30 22:54 UTC NOAA

KAKH 302254Z AUTO 00000KT 10SM CLR 31/23 A2993 RMK AO2 SLP126 T03110228 TSNO


Station Type Date Time Source
KAKH Decoded METAR 2021/07/30 22:54 UTC NOAA

GASTONIA MUNICIPAL AIRPORT, NC, United States (KAKH) 35-12N 81-09W 243M
Jul 30, 2021 - 06:54 PM EDT / 2021.07.30 2254 UTC
Wind: Calm:0
Visibility: 10 mile(s):0
Sky conditions: clear
Temperature: 88.0 F (31.1 C)
Heat index: 95.5 F (35.3 C):1
Dew Point: 73.0 F (22.8 C)
Relative Humidity: 61%
Pressure (altimeter): 29.93 in. Hg (1013 hPa)
ob: KAKH 302254Z AUTO 00000KT 10SM CLR 31/23 A2993 RMK AO2 SLP126 T03110228 TSNO
cycle: 23

Station Type Date Time Source
KAKH TAF UTC NOAA

Error!

Example: see airport list